Time;durP1;ratioP1;P1;durP2;ratioP2;P2;SDS_P1;SDS_P2;PMS_P1;PMS_P2;Temp;Humidity;BMP_temperature;BMP_pressure;BME280_temperature;BME280_humidity;BME280_pressure;Samples;Min_cycle;Max_cycle;Signal;HPM_P1;HPM_P2
2021/01/05 07:13:34;;;;;;;59.65;22.70;;;;;;;;;;5076439;28;20390;-68
2021/01/05 07:15:59;;;;;;;66.75;25.88;;;;;;;;;;5067998;28;20033;-65
2021/01/05 07:18:25;;;;;;;62.67;25.90;;;;;;;;;;5066468;28;20484;-65
2021/01/05 07:20:50;;;;;;;62.90;26.23;;;;;;;;;;5063916;28;20104;-66
2021/01/05 07:23:15;;;;;;;60.05;24.35;;;;;;;;;;5056384;28;20017;-67
2021/01/05 07:25:41;;;;;;;64.70;24.92;;;;;;;;;;5056414;28;20021;-64
2021/01/05 07:28:06;;;;;;;61.50;24.83;;;;;;;;;;5063865;28;20033;-66
2021/01/05 07:30:32;;;;;;;61.65;25.90;;;;;;;;;;5056095;28;20070;-65
2021/01/05 07:32:57;;;;;;;62.85;25.25;;;;;;;;;;5061458;28;20104;-64
2021/01/05 07:35:23;;;;;;;60.40;24.77;;;;;;;;;;5049460;28;20029;-64
2021/01/05 07:37:48;;;;;;;60.75;26.15;;;;;;;;;;5062272;28;20024;-66
2021/01/05 07:40:14;;;;;;;59.80;24.92;;;;;;;;;;5063398;28;20045;-68
2021/01/05 07:42:40;;;;;;;61.53;24.75;;;;;;;;;;5064049;28;20020;-67
2021/01/05 07:45:08;;;;;;;60.72;25.35;;;;;;;;;;5068307;28;20019;-66
2021/01/05 07:47:34;;;;;;;57.03;24.52;;;;;;;;;;5067202;28;20021;-69
2021/01/05 07:50:00;;;;;;;57.33;24.83;;;;;;;;;;5046303;28;20021;-72
2021/01/05 07:52:35;;;;;;;61.47;24.15;;;;;;;;;;5029898;28;20091;-69
2021/01/05 07:55:01;;;;;;;58.28;23.52;;;;;;;;;;5060367;28;20385;-73
2021/01/05 07:57:27;;;;;;;59.53;26.73;;;;;;;;;;5055346;28;20036;-69
2021/01/05 07:59:52;;;;;;;60.92;24.67;;;;;;;;;;5047349;28;20037;-71
2021/01/05 08:02:18;;;;;;;54.53;24.23;;;;;;;;;;5046638;28;20029;-70
2021/01/05 08:04:43;;;;;;;56.20;24.58;;;;;;;;;;5056013;28;20020;-70
2021/01/05 08:07:09;;;;;;;61.70;25.05;;;;;;;;;;5067912;28;20024;-71
2021/01/05 08:09:37;;;;;;;63.92;26.77;;;;;;;;;;5068338;28;20020;-70
2021/01/05 08:12:03;;;;;;;57.00;24.42;;;;;;;;;;5046970;28;20056;-72
2021/01/05 08:14:28;;;;;;;52.97;23.55;;;;;;;;;;5055792;28;20021;-75
2021/01/05 08:16:53;;;;;;;58.55;23.42;;;;;;;;;;5056736;28;20067;-69
2021/01/05 08:19:19;;;;;;;58.45;24.83;;;;;;;;;;5046776;28;20460;-71
2021/01/05 08:21:44;;;;;;;59.72;25.23;;;;;;;;;;5056856;28;20434;-65
2021/01/05 08:24:10;;;;;;;56.72;24.92;;;;;;;;;;5047946;28;20021;-66
2021/01/05 08:26:35;;;;;;;54.78;23.98;;;;;;;;;;5041119;28;20088;-65
2021/01/05 08:29:01;;;;;;;58.40;24.42;;;;;;;;;;5025553;28;20128;-70
2021/01/05 08:31:36;;;;;;;60.55;24.38;;;;;;;;;;5031378;28;20136;-70
2021/01/05 08:34:01;;;;;;;59.83;24.88;;;;;;;;;;5043668;28;20021;-65
2021/01/05 08:36:27;;;;;;;61.75;23.98;;;;;;;;;;5042135;28;20020;-65
2021/01/05 08:38:53;;;;;;;63.38;26.02;;;;;;;;;;5042646;28;20473;-64
2021/01/05 08:41:19;;;;;;;68.20;28.02;;;;;;;;;;5042679;28;20053;-69
2021/01/05 08:43:44;;;;;;;63.97;25.48;;;;;;;;;;5040231;28;20016;-69
2021/01/05 08:46:09;;;;;;;65.82;25.48;;;;;;;;;;5041708;28;20024;-69
2021/01/05 08:48:35;;;;;;;62.50;24.80;;;;;;;;;;5048966;28;20021;-67
2021/01/05 08:51:00;;;;;;;60.97;24.73;;;;;;;;;;5053656;28;20009;-64
2021/01/05 08:53:27;;;;;;;72.53;26.58;;;;;;;;;;5051773;28;20445;-62
2021/01/05 08:55:52;;;;;;;65.78;25.88;;;;;;;;;;5053833;28;20028;-63
2021/01/05 08:58:17;;;;;;;67.28;27.30;;;;;;;;;;5052107;28;20024;-64
2021/01/05 09:00:43;;;;;;;66.78;25.45;;;;;;;;;;5052078;28;20112;-68
2021/01/05 09:03:09;;;;;;;64.15;24.90;;;;;;;;;;5052282;28;20025;-65
2021/01/05 09:05:34;;;;;;;63.47;26.40;;;;;;;;;;5052037;28;20025;-66
2021/01/05 09:07:59;;;;;;;64.35;24.38;;;;;;;;;;5053326;28;20021;-65
2021/01/05 09:10:25;;;;;;;58.67;22.85;;;;;;;;;;5052164;28;20025;-69
2021/01/05 09:12:51;;;;;;;59.13;21.63;;;;;;;;;;5051575;28;20052;-70
2021/01/05 09:15:18;;;;;;;60.45;24.63;;;;;;;;;;5051779;28;20021;-63
2021/01/05 09:17:45;;;;;;;60.35;23.17;;;;;;;;;;5051737;28;20021;-62
2021/01/05 09:20:15;;;;;;;51.08;21.70;;;;;;;;;;5042774;28;20021;-63
2021/01/05 09:22:40;;;;;;;57.30;22.48;;;;;;;;;;5041905;28;20024;-63
2021/01/05 09:25:06;;;;;;;58.55;22.60;;;;;;;;;;5041666;28;20466;-63
2021/01/05 09:27:31;;;;;;;61.28;23.15;;;;;;;;;;5040758;28;20044;-63
2021/01/05 09:29:56;;;;;;;59.33;22.83;;;;;;;;;;5035105;28;20102;-62
2021/01/05 09:32:22;;;;;;;59.60;22.67;;;;;;;;;;5032867;28;20040;-62
2021/01/05 09:34:47;;;;;;;53.50;22.02;;;;;;;;;;5031884;28;20018;-62
2021/01/05 09:37:13;;;;;;;55.17;21.13;;;;;;;;;;5032692;28;20485;-63
2021/01/05 09:39:38;;;;;;;63.70;23.73;;;;;;;;;;5034190;28;20363;-62
2021/01/05 09:42:04;;;;;;;55.85;23.08;;;;;;;;;;5050481;28;20106;-61
2021/01/05 09:44:30;;;;;;;54.88;20.23;;;;;;;;;;5033645;28;20014;-64
2021/01/05 09:46:56;;;;;;;53.75;21.40;;;;;;;;;;5040415;28;20040;-63
2021/01/05 09:49:22;;;;;;;45.47;20.17;;;;;;;;;;5019211;28;20486;-62
2021/01/05 09:51:48;;;;;;;48.88;19.52;;;;;;;;;;5034061;28;20041;-63
2021/01/05 09:54:14;;;;;;;51.45;20.33;;;;;;;;;;5040520;28;20025;-61
2021/01/05 09:56:40;;;;;;;47.72;20.65;;;;;;;;;;5013978;28;20021;-62
2021/01/05 09:59:05;;;;;;;45.03;19.98;;;;;;;;;;5037657;28;20358;-64
2021/01/05 10:01:32;;;;;;;40.85;18.00;;;;;;;;;;5050717;28;20527;-62
2021/01/05 10:03:57;;;;;;;36.63;14.85;;;;;;;;;;5050126;28;20079;-61
2021/01/05 10:06:27;;;;;;;41.47;18.58;;;;;;;;;;5050869;28;20024;-63
2021/01/05 10:08:52;;;;;;;37.05;16.60;;;;;;;;;;5034597;28;20040;-63
2021/01/05 10:11:18;;;;;;;32.53;15.30;;;;;;;;;;5050284;28;20033;-63
2021/01/05 10:13:43;;;;;;;34.28;16.08;;;;;;;;;;5051218;28;20049;-61
2021/01/05 10:16:10;;;;;;;37.22;15.60;;;;;;;;;;5051605;28;20024;-62
2021/01/05 10:18:35;;;;;;;33.75;15.70;;;;;;;;;;5045586;28;20512;-63
2021/01/05 10:21:01;;;;;;;29.13;14.95;;;;;;;;;;5050067;28;20017;-62
2021/01/05 10:23:26;;;;;;;33.97;15.15;;;;;;;;;;5052109;28;20024;-64
2021/01/05 10:25:51;;;;;;;39.28;17.45;;;;;;;;;;5033533;28;20498;-63
2021/01/05 10:28:17;;;;;;;33.65;15.55;;;;;;;;;;5050795;28;20024;-63
2021/01/05 10:30:42;;;;;;;37.08;17.13;;;;;;;;;;5051177;28;20017;-64
2021/01/05 10:33:08;;;;;;;32.97;15.02;;;;;;;;;;5051322;28;20069;-64
2021/01/05 10:35:33;;;;;;;35.13;16.08;;;;;;;;;;5050484;28;20373;-65
2021/01/05 10:37:58;;;;;;;32.53;16.52;;;;;;;;;;5051547;28;20065;-65
2021/01/05 10:40:25;;;;;;;31.02;14.82;;;;;;;;;;5042422;28;20478;-65
2021/01/05 10:42:50;;;;;;;29.55;13.63;;;;;;;;;;5039611;28;20394;-65
2021/01/05 10:45:18;;;;;;;31.75;14.98;;;;;;;;;;5041768;28;20091;-63
2021/01/05 10:47:43;;;;;;;33.85;16.33;;;;;;;;;;5037810;28;20516;-62
2021/01/05 10:50:10;;;;;;;28.90;14.30;;;;;;;;;;5048047;28;20032;-61
2021/01/05 10:52:36;;;;;;;29.45;14.60;;;;;;;;;;5048561;28;20036;-61
2021/01/05 10:55:02;;;;;;;28.02;14.38;;;;;;;;;;5035015;28;20088;-62
2021/01/05 10:57:27;;;;;;;27.23;14.05;;;;;;;;;;5046040;28;20108;-63
2021/01/05 10:59:53;;;;;;;30.73;13.73;;;;;;;;;;5033292;28;20032;-64
2021/01/05 11:02:18;;;;;;;31.55;14.52;;;;;;;;;;5049472;28;20018;-63
2021/01/05 11:04:44;;;;;;;30.85;14.32;;;;;;;;;;5049623;28;20021;-62
2021/01/05 11:07:12;;;;;;;31.27;13.23;;;;;;;;;;5049945;28;20039;-62
2021/01/05 11:09:37;;;;;;;33.10;15.20;;;;;;;;;;5056576;28;20028;-62
2021/01/05 11:12:04;;;;;;;37.92;14.43;;;;;;;;;;5050341;28;20049;-62
2021/01/05 11:14:30;;;;;;;29.33;13.60;;;;;;;;;;5048615;28;20046;-63
2021/01/05 11:16:55;;;;;;;30.08;14.88;;;;;;;;;;5032864;28;20116;-63
2021/01/05 11:19:22;;;;;;;27.90;13.45;;;;;;;;;;5047765;28;20013;-63
2021/01/05 11:21:48;;;;;;;30.63;13.73;;;;;;;;;;5033046;28;20043;-64
2021/01/05 11:24:14;;;;;;;28.48;14.05;;;;;;;;;;5046292;28;20044;-62
2021/01/05 11:26:39;;;;;;;29.35;14.98;;;;;;;;;;5032547;28;20480;-63
2021/01/05 11:29:04;;;;;;;28.70;14.68;;;;;;;;;;5032552;28;20063;-63
2021/01/05 11:31:30;;;;;;;23.58;12.70;;;;;;;;;;5050220;28;20484;-63
2021/01/05 11:33:55;;;;;;;29.80;13.25;;;;;;;;;;5037350;28;20021;-63
2021/01/05 11:36:21;;;;;;;27.70;13.65;;;;;;;;;;5049522;28;20032;-63
2021/01/05 11:38:47;;;;;;;26.98;13.10;;;;;;;;;;5049186;28;20017;-63
2021/01/05 11:41:22;;;;;;;29.27;14.15;;;;;;;;;;5049270;28;20021;-64
2021/01/05 11:43:47;;;;;;;29.55;13.48;;;;;;;;;;5050067;28;20465;-64
2021/01/05 11:46:12;;;;;;;26.80;12.80;;;;;;;;;;5039093;28;20214;-63
2021/01/05 11:48:38;;;;;;;25.52;12.73;;;;;;;;;;5031556;28;20024;-63
2021/01/05 11:51:03;;;;;;;26.50;13.18;;;;;;;;;;5048928;28;20079;-62
2021/01/05 11:53:29;;;;;;;23.92;12.93;;;;;;;;;;5050617;28;20025;-65
2021/01/05 11:55:54;;;;;;;29.00;13.55;;;;;;;;;;5020530;28;20040;-64
2021/01/05 11:58:20;;;;;;;27.80;13.38;;;;;;;;;;5049069;28;20071;-63
2021/01/05 12:00:45;;;;;;;29.23;13.80;;;;;;;;;;5052968;28;20052;-63
2021/01/05 12:03:10;;;;;;;30.45;14.23;;;;;;;;;;5052031;28;20017;-64
2021/01/05 12:05:36;;;;;;;27.15;13.98;;;;;;;;;;5053400;28;20020;-63
2021/01/05 12:08:01;;;;;;;28.17;14.82;;;;;;;;;;5052083;28;20083;-63
2021/01/05 12:10:27;;;;;;;29.65;13.07;;;;;;;;;;5047793;28;20056;-63
2021/01/05 12:12:53;;;;;;;29.58;14.15;;;;;;;;;;5041482;28;20053;-65
2021/01/05 12:15:18;;;;;;;35.22;13.63;;;;;;;;;;5049102;28;20139;-63
2021/01/05 12:17:44;;;;;;;27.10;13.23;;;;;;;;;;5047669;28;20508;-62
2021/01/05 12:20:09;;;;;;;30.35;13.73;;;;;;;;;;5043635;28;20063;-63
2021/01/05 12:22:35;;;;;;;31.17;13.52;;;;;;;;;;5033152;28;20025;-64
2021/01/05 12:25:00;;;;;;;32.08;15.35;;;;;;;;;;5033102;28;20025;-64
2021/01/05 12:27:25;;;;;;;27.45;13.38;;;;;;;;;;5036430;28;20100;-63
2021/01/05 12:29:51;;;;;;;30.30;13.70;;;;;;;;;;5052243;28;20079;-65
2021/01/05 12:32:17;;;;;;;28.13;13.02;;;;;;;;;;5035404;28;20048;-63
2021/01/05 12:34:45;;;;;;;25.15;12.77;;;;;;;;;;5052228;28;20499;-65
2021/01/05 12:37:13;;;;;;;23.43;11.90;;;;;;;;;;5041198;28;20045;-64
2021/01/05 12:39:38;;;;;;;27.25;12.05;;;;;;;;;;5053675;28;20017;-64
2021/01/05 12:42:09;;;;;;;31.83;13.63;;;;;;;;;;5035899;28;20021;-63
2021/01/05 12:44:34;;;;;;;25.58;12.80;;;;;;;;;;5052126;28;20021;-64
2021/01/05 12:47:00;;;;;;;26.40;11.90;;;;;;;;;;5039350;28;20024;-63
2021/01/05 12:49:29;;;;;;;27.00;11.68;;;;;;;;;;5032499;28;20021;-63
2021/01/05 12:51:56;;;;;;;26.30;12.07;;;;;;;;;;5044688;28;20052;-63
2021/01/05 12:54:23;;;;;;;25.15;11.02;;;;;;;;;;5034663;28;20308;-63
2021/01/05 12:56:48;;;;;;;24.85;11.55;;;;;;;;;;5049581;28;20017;-65
2021/01/05 12:59:14;;;;;;;25.23;12.15;;;;;;;;;;5049273;28;20115;-63
2021/01/05 13:01:39;;;;;;;25.58;11.45;;;;;;;;;;5034584;28;20044;-64
2021/01/05 13:04:05;;;;;;;25.45;10.88;;;;;;;;;;5035955;28;20155;-62
2021/01/05 13:06:31;;;;;;;25.92;13.27;;;;;;;;;;5041742;28;20029;-63
2021/01/05 13:08:57;;;;;;;29.85;13.63;;;;;;;;;;5042350;28;20025;-63
2021/01/05 13:11:23;;;;;;;27.42;13.52;;;;;;;;;;5042292;28;20028;-63
2021/01/05 13:13:49;;;;;;;29.45;12.98;;;;;;;;;;5041182;28;20141;-64
2021/01/05 13:16:17;;;;;;;26.52;12.90;;;;;;;;;;5039064;28;20090;-63
2021/01/05 13:18:43;;;;;;;31.17;12.55;;;;;;;;;;5039524;28;20016;-63
2021/01/05 13:21:09;;;;;;;30.00;13.43;;;;;;;;;;5026349;28;20013;-63
2021/01/05 13:23:35;;;;;;;30.48;13.73;;;;;;;;;;5041853;28;20068;-64
2021/01/05 13:26:00;;;;;;;30.83;13.38;;;;;;;;;;5044407;28;20452;-64
2021/01/05 13:28:27;;;;;;;32.30;14.48;;;;;;;;;;5053001;28;20025;-66
2021/01/05 13:30:52;;;;;;;27.50;12.18;;;;;;;;;;5049316;28;20124;-66
2021/01/05 13:33:18;;;;;;;29.25;13.48;;;;;;;;;;5050797;28;20115;-65
2021/01/05 13:35:43;;;;;;;27.50;12.27;;;;;;;;;;5044717;28;20032;-65
2021/01/05 13:38:09;;;;;;;29.05;13.55;;;;;;;;;;5052973;28;20017;-64
2021/01/05 13:40:35;;;;;;;35.50;14.60;;;;;;;;;;5051092;28;20025;-65
2021/01/05 13:43:00;;;;;;;33.72;12.10;;;;;;;;;;5052995;28;20020;-64
2021/01/05 13:45:26;;;;;;;32.70;13.18;;;;;;;;;;5050625;28;20462;-65
2021/01/05 13:47:52;;;;;;;29.38;13.45;;;;;;;;;;5031627;28;20025;-66
2021/01/05 13:50:28;;;;;;;35.45;14.88;;;;;;;;;;5037901;28;20020;-65
2021/01/05 13:52:54;;;;;;;29.35;14.23;;;;;;;;;;5042331;28;20120;-65
2021/01/05 13:55:21;;;;;;;39.25;14.88;;;;;;;;;;5047532;28;20464;-64
2021/01/05 13:57:47;;;;;;;37.28;14.23;;;;;;;;;;5035017;28;20067;-65
2021/01/05 14:00:16;;;;;;;36.65;15.95;;;;;;;;;;5043587;28;20065;-63
2021/01/05 14:02:43;;;;;;;42.55;15.65;;;;;;;;;;5037115;28;20039;-62
2021/01/05 14:05:09;;;;;;;34.83;15.23;;;;;;;;;;5047624;28;20029;-63
2021/01/05 14:07:35;;;;;;;31.98;14.77;;;;;;;;;;5035866;28;20019;-65
2021/01/05 14:10:01;;;;;;;32.50;15.23;;;;;;;;;;5035829;28;20075;-63
2021/01/05 14:12:27;;;;;;;30.85;14.93;;;;;;;;;;5031882;28;20449;-64
2021/01/05 14:14:54;;;;;;;32.22;15.55;;;;;;;;;;5049456;28;20017;-65
2021/01/05 14:17:25;;;;;;;30.25;15.35;;;;;;;;;;5032128;28;20052;-63
2021/01/05 14:19:51;;;;;;;32.10;14.50;;;;;;;;;;5031713;28;20531;-63
2021/01/05 14:22:16;;;;;;;36.20;13.93;;;;;;;;;;5046078;28;20017;-64
2021/01/05 14:24:43;;;;;;;37.05;13.82;;;;;;;;;;5050726;28;20037;-66
2021/01/05 14:27:10;;;;;;;36.53;16.15;;;;;;;;;;5042134;28;20021;-65
2021/01/05 14:30:12;;;;;;;31.48;15.02;;;;;;;;;;5050052;28;20111;-65
2021/01/05 14:32:39;;;;;;;31.58;14.02;;;;;;;;;;5050756;28;20033;-65
2021/01/05 14:35:04;;;;;;;31.15;14.93;;;;;;;;;;5050141;28;20039;-67
2021/01/05 14:37:30;;;;;;;28.95;13.63;;;;;;;;;;5051075;28;20028;-65
2021/01/05 14:39:55;;;;;;;31.75;14.65;;;;;;;;;;5051727;28;20021;-65
2021/01/05 14:42:21;;;;;;;30.55;12.85;;;;;;;;;;5049941;28;20079;-64
2021/01/05 14:44:47;;;;;;;31.15;12.98;;;;;;;;;;5050152;28;20013;-64
2021/01/05 14:47:14;;;;;;;23.42;11.80;;;;;;;;;;5047255;28;20021;-63
2021/01/05 14:49:40;;;;;;;28.00;12.98;;;;;;;;;;5049021;28;20473;-63
2021/01/05 14:52:08;;;;;;;27.73;13.20;;;;;;;;;;5043509;28;20044;-65
2021/01/05 14:54:35;;;;;;;26.08;12.68;;;;;;;;;;5050220;28;20024;-64
2021/01/05 14:57:03;;;;;;;27.27;11.90;;;;;;;;;;5049967;28;20373;-64
2021/01/05 14:59:28;;;;;;;24.77;11.90;;;;;;;;;;5040150;28;20024;-64
2021/01/05 15:01:55;;;;;;;24.63;12.80;;;;;;;;;;5044773;28;20017;-65
2021/01/05 15:04:22;;;;;;;27.38;14.35;;;;;;;;;;5042332;28;20346;-64
2021/01/05 15:06:47;;;;;;;29.13;13.48;;;;;;;;;;5043310;28;20036;-65
2021/01/05 15:09:15;;;;;;;25.13;12.95;;;;;;;;;;5050986;28;20013;-64
2021/01/05 15:11:40;;;;;;;29.90;13.73;;;;;;;;;;5049395;28;20091;-63
2021/01/05 15:14:07;;;;;;;30.98;13.68;;;;;;;;;;5032052;28;20171;-63
2021/01/05 15:16:33;;;;;;;23.80;13.02;;;;;;;;;;5029387;28;20031;-64
2021/01/05 15:18:58;;;;;;;30.55;14.10;;;;;;;;;;5033641;28;20087;-62
2021/01/05 15:21:24;;;;;;;26.17;11.25;;;;;;;;;;5044061;28;20477;-63
2021/01/05 15:23:50;;;;;;;26.30;10.10;;;;;;;;;;5048281;28;20029;-64
2021/01/05 15:26:17;;;;;;;28.40;12.52;;;;;;;;;;5048930;28;20424;-62
2021/01/05 15:28:43;;;;;;;23.27;11.63;;;;;;;;;;5049588;28;20017;-64
2021/01/05 15:31:08;;;;;;;21.27;10.65;;;;;;;;;;5051365;28;20067;-65
2021/01/05 15:33:34;;;;;;;27.15;11.05;;;;;;;;;;5051217;28;20028;-63
2021/01/05 15:35:59;;;;;;;23.58;11.02;;;;;;;;;;5054544;28;20063;-64
2021/01/05 15:38:25;;;;;;;24.92;12.82;;;;;;;;;;5050767;28;20029;-62
2021/01/05 15:40:50;;;;;;;22.15;11.75;;;;;;;;;;5054686;28;20158;-63
2021/01/05 15:43:16;;;;;;;19.58;10.63;;;;;;;;;;5030584;28;20468;-63
2021/01/05 15:45:42;;;;;;;25.52;10.73;;;;;;;;;;5054245;28;20078;-63
2021/01/05 15:48:11;;;;;;;20.45;10.50;;;;;;;;;;5055043;28;20021;-62
2021/01/05 15:50:36;;;;;;;21.38;11.15;;;;;;;;;;5069648;28;20064;-62
2021/01/05 15:53:02;;;;;;;24.58;11.75;;;;;;;;;;5062307;28;20158;-61
2021/01/05 15:55:28;;;;;;;24.50;11.57;;;;;;;;;;5064249;28;20025;-62
2021/01/05 15:57:54;;;;;;;25.25;13.10;;;;;;;;;;5055987;28;20029;-61
2021/01/05 16:00:20;;;;;;;25.40;11.15;;;;;;;;;;5071437;28;20024;-61
2021/01/05 16:02:49;;;;;;;23.08;10.35;;;;;;;;;;5059883;28;20061;-62
2021/01/05 16:05:14;;;;;;;28.23;12.48;;;;;;;;;;5064867;28;20024;-62
2021/01/05 16:07:49;;;;;;;21.35;11.65;;;;;;;;;;5067411;28;20020;-62
2021/01/05 16:10:15;;;;;;;26.88;12.60;;;;;;;;;;5056903;28;20611;-61
2021/01/05 16:12:40;;;;;;;23.25;11.95;;;;;;;;;;5069395;28;20140;-64
2021/01/05 16:15:06;;;;;;;24.23;11.63;;;;;;;;;;5062600;28;20013;-64
2021/01/05 16:17:31;;;;;;;27.50;11.70;;;;;;;;;;5063316;28;20025;-64
2021/01/05 16:19:57;;;;;;;27.17;13.18;;;;;;;;;;5050736;28;20110;-64
2021/01/05 16:22:22;;;;;;;26.55;13.07;;;;;;;;;;5057702;28;20553;-65
2021/01/05 16:24:47;;;;;;;27.00;12.73;;;;;;;;;;5069401;28;20025;-64
2021/01/05 16:27:13;;;;;;;27.67;12.07;;;;;;;;;;5046162;28;20024;-65
2021/01/05 16:29:38;;;;;;;27.15;13.45;;;;;;;;;;5043728;28;21358;-63
2021/01/05 16:32:04;;;;;;;28.92;13.98;;;;;;;;;;5047363;28;20025;-65
2021/01/05 16:34:29;;;;;;;28.45;13.98;;;;;;;;;;5056200;28;20051;-65
2021/01/05 16:36:56;;;;;;;27.77;14.35;;;;;;;;;;5062087;28;20561;-63
2021/01/05 16:39:26;;;;;;;35.10;16.75;;;;;;;;;;5048916;28;20025;-64
2021/01/05 16:41:52;;;;;;;31.83;15.32;;;;;;;;;;5068578;28;20022;-63
2021/01/05 16:44:18;;;;;;;31.55;15.68;;;;;;;;;;5051224;28;20067;-64
2021/01/05 16:46:44;;;;;;;28.75;15.40;;;;;;;;;;5064142;28;20461;-63
2021/01/05 16:49:10;;;;;;;36.67;16.35;;;;;;;;;;5064855;28;20076;-63
2021/01/05 16:51:35;;;;;;;37.95;16.80;;;;;;;;;;5064920;28;20016;-62
2021/01/05 16:54:01;;;;;;;38.40;16.90;;;;;;;;;;5056870;28;20040;-63
2021/01/05 16:56:26;;;;;;;34.45;16.15;;;;;;;;;;5069009;28;20013;-63
2021/01/05 16:58:53;;;;;;;35.20;16.25;;;;;;;;;;5059669;28;20055;-63
2021/01/05 17:01:19;;;;;;;39.03;16.90;;;;;;;;;;5067964;28;20024;-63
2021/01/05 17:03:45;;;;;;;37.35;15.93;;;;;;;;;;5042350;28;20017;-64
2021/01/05 17:06:12;;;;;;;27.75;13.90;;;;;;;;;;5063243;28;20017;-63
2021/01/05 17:08:38;;;;;;;36.15;14.70;;;;;;;;;;5067680;28;20382;-64
2021/01/05 17:11:03;;;;;;;35.22;15.80;;;;;;;;;;5060282;28;20042;-63
2021/01/05 17:13:28;;;;;;;35.00;16.40;;;;;;;;;;5062000;28;20072;-64
2021/01/05 17:15:54;;;;;;;37.92;16.48;;;;;;;;;;5067899;28;20047;-64
2021/01/05 17:18:20;;;;;;;43.28;18.83;;;;;;;;;;5054590;28;20021;-63
2021/01/05 17:20:46;;;;;;;37.85;17.00;;;;;;;;;;5053584;28;20025;-64
2021/01/05 17:23:12;;;;;;;33.47;17.20;;;;;;;;;;5052785;28;20028;-64
2021/01/05 17:25:37;;;;;;;40.42;18.40;;;;;;;;;;5035942;28;20051;-64
2021/01/05 17:28:04;;;;;;;36.55;16.40;;;;;;;;;;5052896;28;20071;-64
2021/01/05 17:30:31;;;;;;;43.22;16.02;;;;;;;;;;5053471;28;20139;-73
2021/01/05 17:32:56;;;;;;;32.13;14.30;;;;;;;;;;5049185;28;20029;-71
2021/01/05 17:35:24;;;;;;;37.13;15.40;;;;;;;;;;5068995;28;20095;-72
2021/01/05 17:37:50;;;;;;;34.58;14.90;;;;;;;;;;5055333;28;20066;-72
2021/01/05 17:40:18;;;;;;;26.48;13.40;;;;;;;;;;5047758;28;20025;-72
2021/01/05 17:42:44;;;;;;;26.73;12.85;;;;;;;;;;5045438;28;20078;-73
2021/01/05 17:45:09;;;;;;;35.38;15.48;;;;;;;;;;5057445;28;20033;-72
2021/01/05 17:47:35;;;;;;;29.60;14.52;;;;;;;;;;5050742;28;20027;-73
2021/01/05 17:50:00;;;;;;;31.48;15.07;;;;;;;;;;5055429;28;20021;-73
2021/01/05 17:52:27;;;;;;;36.47;15.98;;;;;;;;;;5063008;28;20033;-69
2021/01/05 17:54:52;;;;;;;34.13;15.93;;;;;;;;;;5064060;28;20024;-73
2021/01/05 17:57:17;;;;;;;28.75;14.07;;;;;;;;;;5054971;28;20013;-68
2021/01/05 17:59:43;;;;;;;37.42;15.70;;;;;;;;;;5049096;28;20020;-68
2021/01/05 18:02:09;;;;;;;27.10;14.02;;;;;;;;;;5053818;28;20421;-70
2021/01/05 18:04:34;;;;;;;24.73;12.45;;;;;;;;;;5063183;28;20427;-70
2021/01/05 18:07:00;;;;;;;27.73;12.32;;;;;;;;;;5058079;28;20032;-69
2021/01/05 18:09:25;;;;;;;26.17;11.95;;;;;;;;;;5048369;28;20156;-70
2021/01/05 18:11:50;;;;;;;35.05;13.25;;;;;;;;;;5068196;28;20393;-69
2021/01/05 18:14:16;;;;;;;25.92;11.45;;;;;;;;;;5058667;28;20487;-68
2021/01/05 18:16:41;;;;;;;30.52;15.48;;;;;;;;;;5060269;28;20401;-68
2021/01/05 18:19:07;;;;;;;40.25;18.17;;;;;;;;;;5063720;28;20059;-71
2021/01/05 18:21:33;;;;;;;35.40;16.92;;;;;;;;;;5054838;28;20531;-72
2021/01/05 18:23:58;;;;;;;40.25;19.50;;;;;;;;;;5067622;28;20059;-74
2021/01/05 18:26:24;;;;;;;52.53;21.65;;;;;;;;;;5060095;28;20039;-70
2021/01/05 18:28:49;;;;;;;50.78;20.90;;;;;;;;;;5029053;28;20029;-70
2021/01/05 18:31:15;;;;;;;32.97;16.77;;;;;;;;;;5041148;28;20071;-71
